Time;durP1;ratioP1;P1;durP2;ratioP2;P2;SDS_P1;SDS_P2;PMS_P1;PMS_P2;Temp;Humidity;BMP_temperature;BMP_pressure;BME280_temperature;BME280_humidity;BME280_pressure;Samples;Min_cycle;Max_cycle;Signal;HPM_P1;HPM_P2
2021/11/11 00:00:36;;;;;;;5.53;4.95;;;0.70;99.90;;;;;;7387640;19;20721;-81
2021/11/11 00:03:03;;;;;;;6.32;5.55;;;0.70;99.90;;;;;;7388359;19;20349;-81
2021/11/11 00:05:29;;;;;;;6.47;5.63;;;0.60;99.90;;;;;;7391472;19;20342;-81
2021/11/11 00:07:55;;;;;;;6.00;5.40;;;0.70;99.90;;;;;;7368295;19;20360;-81
2021/11/11 00:10:22;;;;;;;5.82;5.22;;;0.60;99.90;;;;;;7388563;19;20325;-81
2021/11/11 00:12:49;;;;;;;5.88;5.18;;;0.60;99.90;;;;;;7391328;19;20324;-81
2021/11/11 00:15:16;;;;;;;6.63;5.45;;;0.40;99.90;;;;;;7387543;19;20366;-81
2021/11/11 00:17:42;;;;;;;5.03;4.55;;;0.50;99.90;;;;;;7389453;19;20403;-81
2021/11/11 00:20:09;;;;;;;5.25;4.57;;;0.60;99.90;;;;;;7389458;19;20346;-80
2021/11/11 00:22:35;;;;;;;5.38;4.88;;;0.40;99.90;;;;;;7387868;19;20336;-83
2021/11/11 00:25:02;;;;;;;5.37;4.87;;;0.50;99.90;;;;;;7347737;19;21140;-81
2021/11/11 00:27:30;;;;;;;5.18;4.65;;;0.50;99.90;;;;;;7368225;19;20312;-81
2021/11/11 00:29:56;;;;;;;8.20;4.85;;;0.60;99.90;;;;;;7387407;19;20349;-81
2021/11/11 00:32:23;;;;;;;5.50;4.47;;;0.60;99.90;;;;;;7386618;19;20328;-81
2021/11/11 00:34:52;;;;;;;5.22;4.78;;;0.30;99.90;;;;;;7390326;19;20305;-81
2021/11/11 00:37:23;;;;;;;4.57;4.18;;;0.40;99.90;;;;;;7388532;19;20343;-81
2021/11/11 00:39:50;;;;;;;7.82;4.80;;;0.30;99.90;;;;;;7367210;19;20316;-84
2021/11/11 00:42:17;;;;;;;5.20;4.43;;;0.40;99.90;;;;;;7367605;19;20321;-80
2021/11/11 00:44:44;;;;;;;4.88;4.38;;;0.40;99.90;;;;;;7391059;19;20341;-80
2021/11/11 00:47:11;;;;;;;4.83;4.43;;;0.10;99.90;;;;;;7386518;19;20344;-81
2021/11/11 00:49:38;;;;;;;5.10;4.60;;;0.30;99.90;;;;;;7388690;19;20849;-80
2021/11/11 00:52:04;;;;;;;5.43;4.32;;;0.30;99.90;;;;;;7389174;19;20317;-81
2021/11/11 00:54:32;;;;;;;5.67;4.70;;;0.10;99.90;;;;;;7388159;19;20352;-84
2021/11/11 00:56:58;;;;;;;4.78;4.38;;;0.20;99.90;;;;;;7389928;19;20313;-80
2021/11/11 00:59:24;;;;;;;5.20;4.70;;;0.10;99.90;;;;;;7368828;19;20347;-81
2021/11/11 01:01:55;;;;;;;5.10;4.60;;;0.00;99.90;;;;;;7386895;19;20665;-81
2021/11/11 01:04:23;;;;;;;4.53;4.13;;;0.00;99.90;;;;;;7385507;19;20367;-81
2021/11/11 01:06:50;;;;;;;5.90;5.32;;;0.00;99.90;;;;;;7397351;19;20321;-81
2021/11/11 01:09:16;;;;;;;4.53;4.13;;;0.00;99.90;;;;;;7396655;19;20349;-80
2021/11/11 01:11:43;;;;;;;4.88;4.38;;;0.00;99.90;;;;;;7392988;19;20385;-82
2021/11/11 01:14:11;;;;;;;4.90;4.37;;;0.00;99.90;;;;;;7392339;19;20328;-79
2021/11/11 01:16:37;;;;;;;4.47;4.07;;;0.00;99.90;;;;;;7391322;19;20336;-80
2021/11/11 01:19:04;;;;;;;4.78;4.35;;;0.00;99.90;;;;;;7391094;19;20308;-80
2021/11/11 01:21:30;;;;;;;4.65;4.15;;;-0.10;99.90;;;;;;7389730;19;20315;-80
2021/11/11 01:23:56;;;;;;;4.70;4.30;;;0.00;99.90;;;;;;7388541;19;20329;-81
2021/11/11 01:26:22;;;;;;;4.87;4.40;;;0.10;99.90;;;;;;7388079;19;20732;-80
2021/11/11 01:28:50;;;;;;;5.60;4.93;;;0.10;99.90;;;;;;7390282;19;20320;-80
2021/11/11 01:31:19;;;;;;;5.43;4.57;;;0.00;99.90;;;;;;7387165;19;20413;-79
2021/11/11 01:33:46;;;;;;;5.37;4.60;;;0.00;99.90;;;;;;7366005;19;20313;-79
2021/11/11 01:36:13;;;;;;;5.07;4.57;;;-0.10;99.90;;;;;;7387936;19;20832;-80
2021/11/11 01:38:50;;;;;;;4.93;4.50;;;-0.20;99.90;;;;;;7293118;19;2004334;-80
2021/11/11 01:41:17;;;;;;;5.13;4.68;;;-0.10;99.90;;;;;;7393434;19;20345;-79
2021/11/11 01:43:43;;;;;;;4.85;4.15;;;-0.30;99.90;;;;;;7392488;19;20316;-80
2021/11/11 01:46:14;;;;;;;6.00;4.30;;;-0.20;99.90;;;;;;7394200;19;20733;-80
2021/11/11 01:48:43;;;;;;;4.72;4.32;;;-0.20;99.90;;;;;;7392721;19;20328;-80
2021/11/11 01:51:15;;;;;;;4.53;4.20;;;-0.10;99.90;;;;;;7392617;19;20308;-79
2021/11/11 01:53:54;;;;;;;6.60;4.13;;;-0.30;99.90;;;;;;7393788;19;20333;-79
2021/11/11 01:56:22;;;;;;;4.63;4.10;;;-0.20;99.90;;;;;;7394474;19;20434;-80
2021/11/11 01:58:49;;;;;;;4.85;4.40;;;-0.30;99.90;;;;;;7392896;19;20362;-85
2021/11/11 02:01:15;;;;;;;5.43;4.00;;;-0.30;99.90;;;;;;7393350;19;20345;-80
2021/11/11 02:03:42;;;;;;;4.53;4.13;;;-0.30;99.90;;;;;;7392086;19;20320;-78
2021/11/11 02:06:27;;;;;;;4.85;4.38;;;-0.30;99.90;;;;;;7391724;19;20686;-80
2021/11/11 02:09:01;;;;;;;6.18;4.68;;;-0.30;99.90;;;;;;7394706;19;20305;-79
2021/11/11 02:11:56;;;;;;;4.78;4.32;;;-0.30;99.90;;;;;;7292556;19;2006019;-80
2021/11/11 02:14:22;;;;;;;4.65;4.18;;;-0.30;99.90;;;;;;7393093;19;20344;-80
2021/11/11 02:16:49;;;;;;;4.65;4.25;;;-0.30;99.90;;;;;;7392823;19;20329;-80
2021/11/11 02:19:23;;;;;;;4.70;4.18;;;-0.30;99.90;;;;;;7394387;19;20507;-82
2021/11/11 02:21:58;;;;;;;5.22;4.72;;;-0.40;99.90;;;;;;7400247;19;20340;-79
2021/11/11 02:24:33;;;;;;;4.25;3.85;;;-0.40;99.90;;;;;;7294393;19;2010332;-80
2021/11/11 02:27:13;;;;;;;5.13;4.13;;;-0.50;99.90;;;;;;7294375;19;2004880;-80
2021/11/11 02:29:39;;;;;;;4.40;4.00;;;-0.50;99.90;;;;;;7396888;19;20392;-81
2021/11/11 02:32:05;;;;;;;4.53;4.13;;;-0.40;99.90;;;;;;7394116;19;20322;-82
2021/11/11 02:34:37;;;;;;;4.30;3.83;;;-0.50;99.90;;;;;;7393941;19;20456;-79
2021/11/11 02:37:04;;;;;;;4.07;3.77;;;-0.40;99.90;;;;;;7378161;19;20344;-82
2021/11/11 02:39:50;;;;;;;4.30;3.90;;;-0.50;99.90;;;;;;7287788;19;2006764;-79
2021/11/11 02:42:17;;;;;;;5.03;4.32;;;-0.50;99.90;;;;;;7394947;19;20300;-81
2021/11/11 02:44:44;;;;;;;4.88;4.10;;;-0.40;99.90;;;;;;7393213;19;20324;-78
2021/11/11 02:47:15;;;;;;;4.30;3.90;;;-0.50;99.90;;;;;;7395450;19;20308;-81
2021/11/11 02:49:46;;;;;;;4.38;3.97;;;-0.50;99.90;;;;;;7396762;19;20327;-80
2021/11/11 02:52:12;;;;;;;4.47;4.07;;;-0.50;99.90;;;;;;7396988;19;20320;-80
2021/11/11 02:54:38;;;;;;;4.53;4.13;;;-0.50;99.90;;;;;;7393796;19;20854;-80
2021/11/11 02:57:26;;;;;;;4.68;4.28;;;-0.50;99.90;;;;;;7395479;19;20301;-81
2021/11/11 02:59:56;;;;;;;5.38;4.30;;;-0.50;99.90;;;;;;7291943;19;2004560;-79
2021/11/11 03:02:32;;;;;;;4.40;4.00;;;-0.60;99.90;;;;;;7395491;19;20325;-81
2021/11/11 03:04:59;;;;;;;5.22;4.72;;;-0.60;99.90;;;;;;7296610;19;2009479;-82
2021/11/11 03:07:29;;;;;;;4.53;4.15;;;-0.60;99.90;;;;;;7399762;19;20338;-82
2021/11/11 03:09:55;;;;;;;4.22;3.83;;;-0.50;99.90;;;;;;7394254;19;20308;-83
2021/11/11 03:12:26;;;;;;;4.43;3.90;;;-0.70;99.90;;;;;;7394243;19;20316;-81
2021/11/11 03:14:59;;;;;;;4.13;3.72;;;-0.70;99.90;;;;;;7287068;19;2004284;-82
2021/11/11 03:17:28;;;;;;;4.60;4.20;;;-0.50;99.90;;;;;;7368560;19;21418;-84
2021/11/11 03:19:59;;;;;;;4.55;4.15;;;-0.70;99.90;;;;;;7388576;19;20339;-81
2021/11/11 03:22:26;;;;;;;4.20;3.80;;;-0.70;99.90;;;;;;7384221;19;20415;-81
2021/11/11 03:24:59;;;;;;;5.82;4.53;;;-0.70;99.90;;;;;;7371204;19;20340;-83
2021/11/11 03:27:34;;;;;;;4.68;3.97;;;-0.80;99.90;;;;;;7288248;19;2004636;-82
2021/11/11 03:30:07;;;;;;;4.88;4.38;;;-0.70;99.90;;;;;;7390899;19;20407;-83
2021/11/11 03:32:34;;;;;;;5.18;4.72;;;-0.80;99.90;;;;;;7385196;19;20363;-82
2021/11/11 03:35:11;;;;;;;5.13;4.60;;;-0.80;99.90;;;;;;7386848;19;20337;-81
2021/11/11 03:37:42;;;;;;;4.90;4.38;;;-0.80;99.90;;;;;;7397670;19;20325;-81
2021/11/11 03:40:21;;;;;;;4.77;3.87;;;-0.90;99.90;;;;;;7396450;19;20335;-81
2021/11/11 03:42:50;;;;;;;4.93;4.13;;;-0.80;99.90;;;;;;7393113;19;20329;-84
2021/11/11 03:45:22;;;;;;;5.50;4.90;;;-0.90;99.90;;;;;;7367997;19;20863;-84
2021/11/11 03:47:54;;;;;;;3.95;3.55;;;-0.80;99.90;;;;;;7392037;19;20313;-83
2021/11/11 03:50:22;;;;;;;4.53;4.13;;;-0.90;99.90;;;;;;7387935;19;20331;-82
2021/11/11 03:52:51;;;;;;;4.50;4.10;;;-0.90;99.90;;;;;;7390330;19;20763;-82
2021/11/11 03:55:24;;;;;;;5.18;4.68;;;-0.80;99.90;;;;;;7391481;19;20339;-83
2021/11/11 03:57:52;;;;;;;4.30;3.90;;;-0.80;99.90;;;;;;7369532;19;20399;-84
2021/11/11 04:00:19;;;;;;;4.57;4.13;;;-0.90;99.90;;;;;;7388354;19;20673;-81
2021/11/11 04:02:51;;;;;;;4.67;4.20;;;-0.90;99.90;;;;;;7385293;19;20345;-81
2021/11/11 04:05:20;;;;;;;5.97;4.05;;;-0.90;99.90;;;;;;7389453;19;20324;-81
2021/11/11 04:07:55;;;;;;;4.37;3.97;;;-0.90;99.90;;;;;;7290857;19;2004453;-81
2021/11/11 04:10:21;;;;;;;4.73;4.27;;;-0.90;99.90;;;;;;7390664;19;20337;-82
2021/11/11 04:12:50;;;;;;;4.10;3.70;;;-0.90;99.90;;;;;;7389731;19;21008;-83
2021/11/11 04:15:19;;;;;;;4.83;4.33;;;-1.00;99.90;;;;;;7391199;19;20332;-83
2021/11/11 04:17:45;;;;;;;4.10;3.70;;;-1.00;99.90;;;;;;7393411;19;20348;-81
2021/11/11 04:20:11;;;;;;;4.20;3.85;;;-1.00;99.90;;;;;;7367701;19;20340;-83
2021/11/11 04:22:41;;;;;;;5.35;4.85;;;-1.00;99.90;;;;;;7391551;19;20396;-82
2021/11/11 04:25:14;;;;;;;4.15;3.75;;;-1.10;99.90;;;;;;7390326;19;21016;-82
2021/11/11 04:27:51;;;;;;;4.32;3.95;;;-1.10;99.90;;;;;;7392551;19;20353;-81
2021/11/11 04:30:27;;;;;;;4.60;4.20;;;-1.10;99.90;;;;;;7391435;19;20354;-82
2021/11/11 04:32:57;;;;;;;5.18;4.68;;;-1.10;99.90;;;;;;7390922;19;20344;-81
2021/11/11 04:35:23;;;;;;;4.50;4.10;;;-1.20;99.90;;;;;;7392238;19;20337;-83
2021/11/11 04:46:51;;;;;;;5.03;4.43;;;-1.10;99.90;;;;;;7291107;19;2004535;-82
2021/11/11 04:49:56;;;;;;;4.43;3.92;;;-1.10;99.90;;;;;;7293504;19;2009869;-82
2021/11/11 05:05:26;;;;;;;5.13;4.40;;;-1.10;99.90;;;;;;7396899;19;20325;-82
2021/11/11 05:07:53;;;;;;;5.07;4.20;;;-1.00;99.90;;;;;;7397221;19;20325;-85
2021/11/11 05:10:19;;;;;;;6.40;5.57;;;-1.00;99.90;;;;;;7395473;19;20341;-81
2021/11/11 05:12:45;;;;;;;6.03;5.47;;;-1.00;99.90;;;;;;7401295;19;20404;-81
2021/11/11 05:15:11;;;;;;;7.00;5.78;;;-1.00;99.90;;;;;;7397215;19;20336;-83
2021/11/11 05:17:41;;;;;;;8.52;5.32;;;-1.10;99.90;;;;;;7400661;19;20332;-82
2021/11/11 05:20:08;;;;;;;5.55;5.05;;;-1.10;99.90;;;;;;7399592;19;20348;-81
2021/11/11 05:22:33;;;;;;;6.17;5.00;;;-1.10;99.90;;;;;;7399633;19;20315;-81
2021/11/11 05:24:59;;;;;;;6.67;4.77;;;-1.00;99.90;;;;;;7397550;19;20404;-84
2021/11/11 05:27:26;;;;;;;5.60;5.10;;;-1.00;99.90;;;;;;7394894;19;20328;-81
2021/11/11 05:29:53;;;;;;;5.30;4.60;;;-1.00;99.90;;;;;;7399123;19;20325;-85
2021/11/11 05:32:20;;;;;;;4.95;4.45;;;-1.10;99.90;;;;;;7398322;19;20332;-81
2021/11/11 05:34:45;;;;;;;4.93;4.53;;;-1.10;99.90;;;;;;7396983;19;20348;-81
2021/11/11 05:37:12;;;;;;;5.83;5.20;;;-1.00;99.90;;;;;;7396652;19;20341;-81
2021/11/11 05:39:38;;;;;;;6.18;4.35;;;-1.00;99.90;;;;;;7400052;19;20859;-83
2021/11/11 05:42:04;;;;;;;5.30;4.80;;;-1.10;99.90;;;;;;7399383;19;20324;-81
2021/11/11 05:44:31;;;;;;;5.97;5.38;;;-1.10;99.90;;;;;;7399404;19;20290;-85
2021/11/11 05:46:57;;;;;;;5.25;4.80;;;-1.10;99.90;;;;;;7397365;19;20882;-81
2021/11/11 05:49:23;;;;;;;5.97;5.32;;;-1.10;99.90;;;;;;7398785;19;20320;-83
2021/11/11 05:51:50;;;;;;;5.47;4.97;;;-1.10;99.90;;;;;;7399867;19;20315;-80
2021/11/11 05:54:16;;;;;;;5.47;4.40;;;-1.10;99.90;;;;;;7398534;19;20359;-81
2021/11/11 05:56:42;;;;;;;5.72;4.97;;;-1.10;99.90;;;;;;7398544;19;21300;-84
2021/11/11 05:59:08;;;;;;;6.00;5.40;;;-1.00;99.90;;;;;;7399151;19;20344;-86
2021/11/11 06:01:33;;;;;;;5.60;5.10;;;-1.10;99.90;;;;;;7396214;19;20344;-82
2021/11/11 06:04:01;;;;;;;5.72;5.22;;;-1.20;99.90;;;;;;7400586;19;20455;-84
2021/11/11 06:06:30;;;;;;;6.35;5.75;;;-1.20;99.90;;;;;;7387274;19;20294;-84
2021/11/11 06:08:56;;;;;;;7.32;5.70;;;-1.20;99.90;;;;;;7385651;19;20756;-87
2021/11/11 06:11:22;;;;;;;6.10;5.50;;;-1.10;99.90;;;;;;7405667;19;20339;-83
2021/11/11 06:13:49;;;;;;;5.68;5.20;;;-1.20;99.90;;;;;;7402748;19;22109;-83
2021/11/11 06:16:16;;;;;;;6.00;5.40;;;-1.40;99.90;;;;;;7396674;19;20344;-80
2021/11/11 06:18:42;;;;;;;8.70;5.80;;;-1.20;99.90;;;;;;7400047;19;20387;-81
2021/11/11 06:21:08;;;;;;;5.82;5.32;;;-1.10;99.90;;;;;;7396055;19;20324;-84
2021/11/11 06:23:35;;;;;;;6.05;5.47;;;-1.20;99.90;;;;;;7394858;19;20352;-80
2021/11/11 06:26:02;;;;;;;7.80;7.00;;;-1.10;99.90;;;;;;7376112;19;20388;-83
2021/11/11 06:28:30;;;;;;;8.57;6.18;;;-1.20;99.90;;;;;;7398585;19;20341;-82
2021/11/11 06:31:00;;;;;;;8.85;6.95;;;-1.30;99.90;;;;;;7398493;19;20317;-83
2021/11/11 06:33:28;;;;;;;8.05;6.75;;;-1.30;99.90;;;;;;7398468;19;20364;-82
2021/11/11 06:35:54;;;;;;;8.00;7.20;;;-1.30;99.90;;;;;;7391036;19;20319;-81
2021/11/11 06:38:20;;;;;;;9.13;7.55;;;-1.30;99.90;;;;;;7393157;19;20337;-81
2021/11/11 06:40:47;;;;;;;9.68;8.40;;;-1.30;99.90;;;;;;7393256;19;20361;-81
2021/11/11 06:43:13;;;;;;;8.45;7.57;;;-1.20;99.90;;;;;;7391179;19;20455;-82
2021/11/11 06:45:43;;;;;;;9.23;8.05;;;-1.30;99.90;;;;;;7388974;19;20337;-81
2021/11/11 06:48:18;;;;;;;11.43;8.18;;;-1.30;99.90;;;;;;7391523;19;20737;-84
2021/11/11 06:50:45;;;;;;;10.27;9.07;;;-1.20;99.90;;;;;;7391792;19;20365;-79
2021/11/11 06:53:11;;;;;;;10.40;8.83;;;-1.30;99.90;;;;;;7388879;19;20325;-80
2021/11/11 06:55:39;;;;;;;13.90;8.80;;;-1.30;99.90;;;;;;7390935;19;20332;-80
2021/11/11 06:58:05;;;;;;;10.98;7.97;;;-1.20;99.90;;;;;;7390792;19;20345;-83
2021/11/11 07:00:31;;;;;;;11.17;8.83;;;-1.10;99.90;;;;;;7392202;19;20341;-80
2021/11/11 07:02:57;;;;;;;9.90;7.63;;;-1.00;99.90;;;;;;7389597;19;20359;-80
2021/11/11 07:05:23;;;;;;;10.20;8.07;;;-0.90;99.90;;;;;;7392251;19;20329;-81
2021/11/11 07:07:53;;;;;;;9.95;7.97;;;-0.90;99.90;;;;;;7389021;19;20321;-80
2021/11/11 07:10:21;;;;;;;10.07;7.88;;;-0.90;99.90;;;;;;7391950;19;20349;-81
2021/11/11 07:12:50;;;;;;;11.02;8.32;;;-0.80;99.90;;;;;;7392372;19;20328;-80
2021/11/11 07:15:16;;;;;;;9.23;7.97;;;-0.70;99.90;;;;;;7390573;19;20377;-79
2021/11/11 07:17:41;;;;;;;14.95;7.90;;;-0.70;99.90;;;;;;7391554;19;20313;-79
2021/11/11 07:20:10;;;;;;;9.07;8.00;;;-0.70;99.90;;;;;;7390736;19;20319;-79
2021/11/11 07:22:36;;;;;;;8.48;7.22;;;-0.80;99.90;;;;;;7394190;19;20355;-79
2021/11/11 07:25:02;;;;;;;11.02;8.00;;;-0.50;99.90;;;;;;7388356;19;20800;-79
2021/11/11 07:27:27;;;;;;;10.35;7.57;;;-0.50;99.90;;;;;;7390934;19;20312;-79
2021/11/11 07:29:53;;;;;;;9.65;8.43;;;-0.40;99.90;;;;;;7389444;19;20426;-79
2021/11/11 07:32:19;;;;;;;9.83;8.63;;;-0.30;99.90;;;;;;7390324;19;20312;-79
2021/11/11 07:34:44;;;;;;;9.57;8.27;;;-0.30;99.90;;;;;;7388447;19;20844;-80
2021/11/11 07:37:10;;;;;;;9.82;8.60;;;-0.20;99.90;;;;;;7389580;19;20747;-80
2021/11/11 07:39:36;;;;;;;12.50;10.80;;;-0.10;99.90;;;;;;7390130;19;20339;-80
2021/11/11 07:42:02;;;;;;;11.70;10.48;;;0.00;99.90;;;;;;7389937;19;20343;-80
2021/11/11 07:44:31;;;;;;;12.07;10.20;;;-0.10;99.90;;;;;;7389585;19;20348;-80
2021/11/11 07:46:57;;;;;;;11.38;10.00;;;-0.10;99.90;;;;;;7388508;19;20296;-79
2021/11/11 07:49:23;;;;;;;13.07;9.90;;;-0.10;99.90;;;;;;7389781;19;20997;-81
2021/11/11 07:51:49;;;;;;;12.40;9.70;;;0.00;99.90;;;;;;7388785;19;20878;-80
2021/11/11 07:54:15;;;;;;;10.73;9.57;;;0.00;99.90;;;;;;7412830;19;20408;-84
2021/11/11 07:56:45;;;;;;;9.90;8.90;;;0.20;99.90;;;;;;7372388;19;20339;-82
2021/11/11 07:59:34;;;;;;;11.55;8.55;;;0.00;99.90;;;;;;7303783;19;20348;-82
2021/11/11 08:02:20;;;;;;;15.03;11.37;;;0.10;99.90;;;;;;7377522;19;20328;-83
2021/11/11 08:05:16;;;;;;;9.50;8.52;;;0.10;99.90;;;;;;7236394;19;2004304;-81
2021/11/11 08:07:58;;;;;;;12.43;10.13;;;0.30;99.90;;;;;;7307091;19;20323;-82
2021/11/11 08:10:35;;;;;;;10.05;8.63;;;0.20;99.90;;;;;;7368894;19;20348;-80
2021/11/11 08:13:08;;;;;;;9.57;8.57;;;0.30;99.90;;;;;;7389376;19;20317;-79
2021/11/11 08:15:34;;;;;;;12.05;9.35;;;0.50;99.90;;;;;;7387792;19;20352;-80
2021/11/11 08:17:59;;;;;;;9.73;7.38;;;0.60;99.90;;;;;;7388740;19;20340;-80
2021/11/11 08:20:25;;;;;;;8.90;7.70;;;0.60;99.90;;;;;;7388843;19;20341;-80
2021/11/11 08:22:54;;;;;;;8.48;7.68;;;0.70;99.90;;;;;;7389190;19;20370;-84
2021/11/11 08:25:20;;;;;;;9.82;8.50;;;0.80;99.90;;;;;;7387126;19;20328;-81
2021/11/11 08:27:46;;;;;;;10.07;8.35;;;0.90;99.90;;;;;;7389331;19;20439;-81
2021/11/11 08:30:14;;;;;;;11.98;9.55;;;1.00;99.90;;;;;;7387909;19;20337;-81
2021/11/11 08:32:41;;;;;;;11.02;9.80;;;1.00;99.90;;;;;;7389677;19;20328;-83
2021/11/11 08:35:07;;;;;;;11.53;9.83;;;1.20;99.90;;;;;;7392900;19;20423;-85
2021/11/11 08:37:33;;;;;;;9.52;8.45;;;1.30;99.90;;;;;;7393196;19;20412;-83
2021/11/11 08:39:59;;;;;;;11.93;10.27;;;1.30;99.90;;;;;;7393878;19;20301;-82
2021/11/11 08:42:24;;;;;;;10.60;9.50;;;1.20;99.90;;;;;;7390433;19;20325;-83
2021/11/11 08:44:50;;;;;;;12.65;8.80;;;1.60;99.90;;;;;;7389119;19;20394;-78
2021/11/11 08:47:18;;;;;;;10.65;9.55;;;1.60;99.90;;;;;;7388222;19;21098;-79
2021/11/11 08:49:45;;;;;;;10.55;9.07;;;1.50;99.90;;;;;;7388352;19;20361;-79
2021/11/11 08:52:12;;;;;;;13.85;12.43;;;1.80;99.90;;;;;;7384235;19;20715;-80
2021/11/11 08:54:38;;;;;;;13.85;11.75;;;1.90;99.90;;;;;;7387130;19;20416;-79
2021/11/11 08:57:04;;;;;;;15.10;12.32;;;2.00;99.90;;;;;;7385951;19;20888;-79
2021/11/11 08:59:53;;;;;;;13.05;10.07;;;2.10;99.90;;;;;;7383142;19;20355;-79
2021/11/11 09:02:18;;;;;;;13.18;11.77;;;2.20;99.90;;;;;;7379592;19;20863;-77
2021/11/11 09:04:44;;;;;;;13.80;12.30;;;2.30;99.90;;;;;;7384506;19;20332;-80
2021/11/11 09:07:10;;;;;;;15.55;12.45;;;2.40;99.90;;;;;;7384816;19;20305;-78
2021/11/11 09:09:36;;;;;;;18.63;14.97;;;2.50;99.90;;;;;;7385090;19;20328;-78
2021/11/11 09:12:02;;;;;;;13.95;12.55;;;2.70;99.90;;;;;;7383244;19;20341;-79
2021/11/11 09:14:29;;;;;;;13.82;12.38;;;2.70;99.90;;;;;;7385825;19;20369;-79
2021/11/11 09:16:55;;;;;;;14.88;13.27;;;2.80;99.90;;;;;;7385878;19;20383;-80
2021/11/11 09:19:20;;;;;;;18.00;14.15;;;3.00;99.90;;;;;;7389537;19;20350;-80
2021/11/11 09:21:46;;;;;;;17.80;12.77;;;3.10;99.90;;;;;;7386940;19;20341;-80
2021/11/11 09:24:12;;;;;;;14.77;13.25;;;3.10;99.90;;;;;;7387550;19;20324;-80
2021/11/11 09:26:41;;;;;;;15.93;11.93;;;3.30;99.90;;;;;;7388787;19;20315;-81
2021/11/11 09:29:22;;;;;;;16.00;12.48;;;3.40;99.90;;;;;;7387465;19;20309;-81
2021/11/11 09:31:50;;;;;;;17.17;14.52;;;3.40;99.90;;;;;;7384321;19;20434;-79
2021/11/11 09:34:16;;;;;;;15.98;13.80;;;3.60;99.90;;;;;;7382198;19;20890;-78
2021/11/11 09:36:42;;;;;;;15.43;12.80;;;3.70;99.90;;;;;;7382041;19;20716;-80
2021/11/11 09:39:07;;;;;;;16.17;13.20;;;3.80;99.90;;;;;;7380697;19;20854;-80
2021/11/11 09:41:33;;;;;;;15.80;14.10;;;4.00;99.90;;;;;;7382228;19;20321;-79
2021/11/11 09:43:59;;;;;;;16.45;14.57;;;4.10;99.90;;;;;;7382805;19;20680;-79
2021/11/11 09:46:25;;;;;;;14.85;13.18;;;4.20;99.90;;;;;;7378308;19;20320;-80
2021/11/11 09:48:51;;;;;;;19.10;15.90;;;4.30;99.90;;;;;;7378220;19;20978;-79
2021/11/11 09:51:19;;;;;;;18.88;15.80;;;4.50;99.90;;;;;;7383602;19;20988;-80
2021/11/11 09:53:58;;;;;;;19.67;16.17;;;4.60;99.90;;;;;;7380414;19;20852;-79
2021/11/11 09:59:09;;;;;;;22.98;17.17;;;4.90;99.90;;;;;;7383397;19;20309;-78
2021/11/11 10:01:35;;;;;;;22.77;17.63;;;5.10;99.90;;;;;;7387551;19;20319;-78
2021/11/11 10:04:01;;;;;;;20.83;16.77;;;5.20;99.90;;;;;;7388581;19;20820;-79
2021/11/11 10:06:27;;;;;;;20.00;17.13;;;5.30;99.90;;;;;;7386275;19;21954;-79
2021/11/11 10:08:54;;;;;;;19.15;16.50;;;5.40;99.90;;;;;;7390795;19;20342;-77
2021/11/11 10:11:30;;;;;;;23.02;17.27;;;5.60;99.90;;;;;;7365799;19;20650;-79
2021/11/11 10:14:07;;;;;;;19.67;17.05;;;5.70;99.90;;;;;;7283367;19;2015704;-78
2021/11/11 10:16:56;;;;;;;21.42;16.88;;;5.80;99.90;;;;;;7284610;19;2010114;-79
2021/11/11 10:19:22;;;;;;;20.10;14.77;;;5.90;99.90;;;;;;7286057;19;2020162;-78
2021/11/11 10:21:56;;;;;;;20.42;16.20;;;6.10;99.90;;;;;;7385512;19;20326;-79
2021/11/11 10:24:31;;;;;;;17.63;15.75;;;6.10;99.90;;;;;;7386641;19;20311;-78
2021/11/11 10:27:07;;;;;;;20.10;16.55;;;6.20;99.90;;;;;;7383749;19;20408;-79
2021/11/11 10:29:48;;;;;;;20.13;16.45;;;6.30;99.90;;;;;;7386275;19;20332;-78
2021/11/11 10:32:29;;;;;;;18.02;15.95;;;6.40;99.90;;;;;;7282054;19;2018194;-79
2021/11/11 10:35:00;;;;;;;17.23;15.40;;;6.50;99.90;;;;;;7282497;19;2020073;-79
2021/11/11 10:37:31;;;;;;;19.00;14.67;;;6.60;99.90;;;;;;7385829;19;20336;-79
2021/11/11 10:40:09;;;;;;;17.33;14.25;;;6.70;99.90;;;;;;7386742;19;20362;-79
2021/11/11 10:42:36;;;;;;;18.50;14.77;;;6.80;99.90;;;;;;7389687;19;20313;-80
2021/11/11 10:45:04;;;;;;;15.73;14.13;;;6.90;99.90;;;;;;7388380;19;20341;-81
2021/11/11 10:47:56;;;;;;;16.80;14.38;;;6.90;99.90;;;;;;7393445;19;20308;-80
2021/11/11 10:50:27;;;;;;;17.17;14.88;;;7.00;99.90;;;;;;7389404;19;20419;-81
2021/11/11 10:52:54;;;;;;;18.47;15.00;;;7.10;99.90;;;;;;7387676;19;20324;-79
2021/11/11 10:55:28;;;;;;;15.73;14.13;;;7.10;99.90;;;;;;7387829;19;20304;-80
2021/11/11 10:58:00;;;;;;;15.23;13.60;;;7.30;99.90;;;;;;7387058;19;20330;-81
2021/11/11 11:00:56;;;;;;;15.95;13.55;;;7.30;99.90;;;;;;7387777;19;20918;-80
2021/11/11 11:03:48;;;;;;;15.60;13.90;;;7.40;99.90;;;;;;7283672;19;2010367;-81
2021/11/11 11:06:23;;;;;;;16.48;13.68;;;7.60;99.90;;;;;;7392449;19;20341;-80
2021/11/11 11:08:57;;;;;;;15.95;13.65;;;7.70;99.90;;;;;;7380173;19;20317;-79
2021/11/11 11:11:34;;;;;;;16.73;13.53;;;7.80;99.90;;;;;;7389404;19;20325;-81
2021/11/11 11:14:01;;;;;;;16.73;13.93;;;7.90;99.90;;;;;;7395863;19;20337;-80
2021/11/11 11:16:28;;;;;;;18.20;14.07;;;8.00;99.90;;;;;;7383415;19;20758;-80
2021/11/11 11:19:05;;;;;;;15.48;13.73;;;8.00;99.90;;;;;;7385064;19;20339;-81
2021/11/11 11:21:53;;;;;;;14.75;12.85;;;8.10;99.90;;;;;;7383644;19;20343;-80
2021/11/11 11:24:22;;;;;;;15.13;12.90;;;8.30;99.90;;;;;;7265005;19;2005623;-80
2021/11/11 11:26:51;;;;;;;14.70;12.48;;;8.40;99.90;;;;;;7388663;19;20288;-81
2021/11/11 11:29:56;;;;;;;14.40;12.57;;;8.60;99.90;;;;;;7389134;19;20325;-80
2021/11/11 11:32:35;;;;;;;14.35;12.15;;;8.60;99.90;;;;;;7262928;19;2004261;-81
2021/11/11 11:35:06;;;;;;;14.10;12.60;;;8.80;99.90;;;;;;7342973;19;20387;-81
2021/11/11 11:37:56;;;;;;;13.07;11.63;;;8.80;99.90;;;;;;7361432;19;20320;-81
2021/11/11 11:40:23;;;;;;;14.80;11.63;;;8.90;99.90;;;;;;7384831;19;20392;-80
2021/11/11 11:42:51;;;;;;;13.75;11.55;;;9.30;99.90;;;;;;7389544;19;20684;-81
2021/11/11 11:45:21;;;;;;;16.87;13.10;;;9.20;99.90;;;;;;7381129;19;20305;-80
2021/11/11 11:47:57;;;;;;;14.35;11.70;;;9.20;99.90;;;;;;7382941;19;20324;-80
2021/11/11 11:50:37;;;;;;;13.13;11.85;;;9.20;99.90;;;;;;7383048;19;20325;-81
2021/11/11 11:54:05;;;;;;;17.45;13.75;;;9.30;99.90;;;;;;7351184;19;20400;-81
2021/11/11 11:56:48;;;;;;;17.67;12.38;;;9.50;99.90;;;;;;7357786;19;20329;-80
2021/11/11 11:59:18;;;;;;;16.53;13.63;;;9.60;99.90;;;;;;7368471;19;20321;-80
2021/11/11 12:07:14;;;;;;;14.90;11.20;;;9.30;99.90;;;;;;7375251;19;20349;-80
2021/11/11 12:55:14;;;;;;;12.70;10.82;;;10.00;99.90;;;;;;7346044;19;20349;-82
2021/11/11 12:58:20;;;;;;;15.35;10.77;;;10.10;99.90;;;;;;7247562;19;2004247;-82
2021/11/11 13:00:52;;;;;;;12.95;9.55;;;9.90;99.90;;;;;;7364586;19;20357;-82
2021/11/11 13:03:22;;;;;;;15.77;10.63;;;10.10;99.90;;;;;;7330050;19;20357;-82
2021/11/11 13:05:58;;;;;;;12.30;9.98;;;10.30;99.90;;;;;;7366757;19;20309;-82
2021/11/11 13:08:50;;;;;;;11.43;9.70;;;10.40;99.90;;;;;;7347135;19;20324;-82
2021/11/11 13:11:29;;;;;;;10.95;8.85;;;10.40;99.90;;;;;;7360459;19;20343;-83
2021/11/11 13:14:13;;;;;;;10.60;9.02;;;10.10;99.90;;;;;;7266934;19;2004459;-82
2021/11/11 13:19:47;;;;;;;10.98;8.95;;;10.20;99.90;;;;;;7351197;19;20321;-81
2021/11/11 13:22:30;;;;;;;9.98;8.98;;;10.20;99.90;;;;;;7343794;19;20368;-81
2021/11/11 16:03:02;;;;;;;8.70;7.07;;;6.50;99.90;;;;;;7351241;19;20400;-80
2021/11/11 16:26:13;;;;;;;7.70;6.97;;;6.00;99.90;;;;;;7348308;19;20337;-80
2021/11/11 16:29:44;;;;;;;7.43;6.55;;;5.70;99.90;;;;;;7340392;19;20693;-81
2021/11/11 16:33:52;;;;;;;9.33;7.90;;;5.80;99.90;;;;;;7294107;19;20363;-80
2021/11/11 16:37:36;;;;;;;14.30;10.20;;;5.60;99.90;;;;;;7303033;19;20443;-80
2021/11/11 16:41:06;;;;;;;10.45;9.18;;;5.60;99.90;;;;;;7345010;19;20855;-81
2021/11/11 16:44:26;;;;;;;10.88;8.95;;;5.30;99.90;;;;;;7387357;19;20366;-80
2021/11/11 16:48:07;;;;;;;7.82;7.03;;;5.40;99.90;;;;;;7293292;19;20344;-81
2021/11/11 16:50:54;;;;;;;7.70;6.90;;;5.10;99.90;;;;;;7387211;19;20888;-81
2021/11/11 16:54:49;;;;;;;9.00;7.20;;;5.20;99.90;;;;;;7234511;19;2004440;-81
2021/11/11 17:01:29;;;;;;;21.20;13.88;;;5.10;99.90;;;;;;7243448;19;2004238;-80
2021/11/11 17:08:09;;;;;;;9.37;8.03;;;4.90;99.90;;;;;;7145818;19;2004639;-79
2021/11/11 17:11:18;;;;;;;11.00;7.95;;;4.90;99.90;;;;;;7269901;19;2004445;-80
2021/11/11 17:14:48;;;;;;;12.20;7.10;;;4.60;99.90;;;;;;7283599;19;20662;-79
2021/11/11 17:19:00;;;;;;;10.70;8.23;;;4.40;99.90;;;;;;7401168;19;20797;-80
2021/11/11 17:22:32;;;;;;;8.70;7.60;;;4.20;99.90;;;;;;7294229;19;2003583;-80
2021/11/11 17:44:50;;;;;;;8.30;6.70;;;4.00;99.90;;;;;;7326428;19;20320;-80
2021/11/11 18:20:56;;;;;;;9.95;8.43;;;3.30;99.90;;;;;;7401931;19;20333;-81
2021/11/11 18:23:22;;;;;;;11.63;8.82;;;3.20;99.90;;;;;;7402433;19;20341;-79
2021/11/11 18:31:38;;;;;;;9.10;7.95;;;3.20;99.90;;;;;;7402681;19;20325;-79
2021/11/11 18:34:15;;;;;;;9.97;7.60;;;2.90;99.90;;;;;;7404804;19;20321;-80
2021/11/11 18:40:00;;;;;;;10.45;8.70;;;3.00;99.90;;;;;;7406376;19;20876;-80